sensor_id;sensor_type;location;lat;lon;timestamp;P1;durP1;ratioP1;P2;durP2;ratioP2
70457;SDS011;57919;56.194;95.716;2023-06-04T00:07:56;20.57;;;11.37;;
70457;SDS011;57919;56.194;95.716;2023-06-04T00:17:57;18.20;;;12.18;;
70457;SDS011;57919;56.194;95.716;2023-06-04T00:27:59;19.57;;;11.50;;
70457;SDS011;57919;56.194;95.716;2023-06-04T00:38:01;17.00;;;11.10;;
70457;SDS011;57919;56.194;95.716;2023-06-04T00:48:03;16.15;;;10.07;;
70457;SDS011;57919;56.194;95.716;2023-06-04T00:58:05;16.37;;;9.77;;
70457;SDS011;57919;56.194;95.716;2023-06-04T01:08:07;14.13;;;9.25;;
70457;SDS011;57919;56.194;95.716;2023-06-04T01:18:10;11.87;;;8.30;;
70457;SDS011;57919;56.194;95.716;2023-06-04T01:28:32;14.60;;;8.60;;
70457;SDS011;57919;56.194;95.716;2023-06-04T01:38:36;14.57;;;8.20;;
70457;SDS011;57919;56.194;95.716;2023-06-04T01:48:38;14.83;;;9.13;;
70457;SDS011;57919;56.194;95.716;2023-06-04T01:58:40;16.30;;;9.80;;
70457;SDS011;57919;56.194;95.716;2023-06-04T02:08:43;11.00;;;7.93;;
70457;SDS011;57919;56.194;95.716;2023-06-04T02:18:45;10.90;;;7.97;;
70457;SDS011;57919;56.194;95.716;2023-06-04T02:28:47;11.27;;;7.88;;
70457;SDS011;57919;56.194;95.716;2023-06-04T02:38:49;13.33;;;7.27;;
70457;SDS011;57919;56.194;95.716;2023-06-04T02:48:52;11.10;;;6.95;;
70457;SDS011;57919;56.194;95.716;2023-06-04T02:58:55;11.63;;;6.70;;
70457;SDS011;57919;56.194;95.716;2023-06-04T03:08:57;9.33;;;5.60;;
70457;SDS011;57919;56.194;95.716;2023-06-04T03:18:59;11.48;;;5.60;;
70457;SDS011;57919;56.194;95.716;2023-06-04T03:29:01;11.87;;;4.80;;
70457;SDS011;57919;56.194;95.716;2023-06-04T03:39:03;9.95;;;5.07;;
70457;SDS011;57919;56.194;95.716;2023-06-04T04:24:51;9.43;;;5.10;;
70457;SDS011;57919;56.194;95.716;2023-06-04T04:34:53;8.50;;;5.00;;
70457;SDS011;57919;56.194;95.716;2023-06-04T04:45:01;7.13;;;4.60;;
70457;SDS011;57919;56.194;95.716;2023-06-04T04:55:06;8.32;;;4.80;;
70457;SDS011;57919;56.194;95.716;2023-06-04T05:05:10;11.27;;;5.63;;
70457;SDS011;57919;56.194;95.716;2023-06-04T05:15:12;7.43;;;4.60;;
70457;SDS011;57919;56.194;95.716;2023-06-04T05:25:34;8.38;;;5.10;;
70457;SDS011;57919;56.194;95.716;2023-06-04T05:35:40;8.13;;;5.07;;
70457;SDS011;57919;56.194;95.716;2023-06-04T05:45:43;8.88;;;5.68;;
70457;SDS011;57919;56.194;95.716;2023-06-04T05:55:46;10.60;;;5.77;;
70457;SDS011;57919;56.194;95.716;2023-06-04T06:05:48;8.13;;;5.33;;
70457;SDS011;57919;56.194;95.716;2023-06-04T06:15:50;9.43;;;5.60;;
70457;SDS011;57919;56.194;95.716;2023-06-04T06:25:54;11.03;;;5.80;;
70457;SDS011;57919;56.194;95.716;2023-06-04T06:36:00;8.65;;;5.32;;
70457;SDS011;57919;56.194;95.716;2023-06-04T06:46:03;10.90;;;5.40;;
70457;SDS011;57919;56.194;95.716;2023-06-04T06:56:05;11.37;;;5.90;;
70457;SDS011;57919;56.194;95.716;2023-06-04T07:06:07;11.50;;;5.78;;
70457;SDS011;57919;56.194;95.716;2023-06-04T07:16:10;13.43;;;6.30;;
70457;SDS011;57919;56.194;95.716;2023-06-04T07:26:12;10.82;;;6.70;;
70457;SDS011;57919;56.194;95.716;2023-06-04T07:36:14;12.37;;;6.70;;
70457;SDS011;57919;56.194;95.716;2023-06-04T07:46:17;10.17;;;5.80;;
70457;SDS011;57919;56.194;95.716;2023-06-04T07:56:21;13.05;;;5.90;;
70457;SDS011;57919;56.194;95.716;2023-06-04T08:06:24;8.80;;;5.67;;
70457;SDS011;57919;56.194;95.716;2023-06-04T08:16:28;8.52;;;6.18;;
70457;SDS011;57919;56.194;95.716;2023-06-04T08:26:50;10.00;;;5.97;;
70457;SDS011;57919;56.194;95.716;2023-06-04T08:37:01;9.87;;;5.83;;
70457;SDS011;57919;56.194;95.716;2023-06-04T08:47:04;10.07;;;5.47;;
70457;SDS011;57919;56.194;95.716;2023-06-04T08:57:10;8.83;;;5.20;;
70457;SDS011;57919;56.194;95.716;2023-06-04T09:07:13;12.18;;;5.82;;
70457;SDS011;57919;56.194;95.716;2023-06-04T09:17:15;11.27;;;5.30;;
70457;SDS011;57919;56.194;95.716;2023-06-04T09:27:26;8.80;;;5.40;;
70457;SDS011;57919;56.194;95.716;2023-06-04T09:37:29;13.68;;;5.88;;
70457;SDS011;57919;56.194;95.716;2023-06-04T09:47:38;12.43;;;5.50;;
70457;SDS011;57919;56.194;95.716;2023-06-04T09:57:41;15.07;;;5.68;;
70457;SDS011;57919;56.194;95.716;2023-06-04T10:07:49;8.20;;;4.90;;
70457;SDS011;57919;56.194;95.716;2023-06-04T10:17:53;8.53;;;5.37;;
70457;SDS011;57919;56.194;95.716;2023-06-04T10:27:56;11.43;;;5.50;;
70457;SDS011;57919;56.194;95.716;2023-06-04T10:38:06;10.50;;;5.53;;
70457;SDS011;57919;56.194;95.716;2023-06-04T10:48:15;13.95;;;8.38;;
70457;SDS011;57919;56.194;95.716;2023-06-04T10:58:18;12.17;;;5.87;;
70457;SDS011;57919;56.194;95.716;2023-06-04T11:08:28;9.00;;;4.87;;
70457;SDS011;57919;56.194;95.716;2023-06-04T11:18:31;9.05;;;5.20;;
70457;SDS011;57919;56.194;95.716;2023-06-04T11:28:33;12.90;;;6.40;;
70457;SDS011;57919;56.194;95.716;2023-06-04T11:38:35;11.48;;;6.13;;
70457;SDS011;57919;56.194;95.716;2023-06-04T11:48:37;13.67;;;6.80;;
70457;SDS011;57919;56.194;95.716;2023-06-04T11:58:39;10.53;;;5.93;;
70457;SDS011;57919;56.194;95.716;2023-06-04T12:08:44;9.40;;;6.03;;
70457;SDS011;57919;56.194;95.716;2023-06-04T12:18:48;13.37;;;6.53;;
70457;SDS011;57919;56.194;95.716;2023-06-04T12:28:59;14.45;;;7.25;;
70457;SDS011;57919;56.194;95.716;2023-06-04T12:39:03;13.07;;;6.43;;
70457;SDS011;57919;56.194;95.716;2023-06-04T12:49:06;12.73;;;7.17;;
70457;SDS011;57919;56.194;95.716;2023-06-04T12:59:08;15.98;;;7.05;;
70457;SDS011;57919;56.194;95.716;2023-06-04T13:09:10;19.13;;;7.43;;
70457;SDS011;57919;56.194;95.716;2023-06-04T13:19:12;19.17;;;7.38;;
70457;SDS011;57919;56.194;95.716;2023-06-04T13:29:14;23.33;;;12.63;;
70457;SDS011;57919;56.194;95.716;2023-06-04T13:39:17;24.67;;;15.70;;
70457;SDS011;57919;56.194;95.716;2023-06-04T13:49:19;20.73;;;11.68;;
70457;SDS011;57919;56.194;95.716;2023-06-04T13:59:22;20.53;;;10.33;;
70457;SDS011;57919;56.194;95.716;2023-06-04T14:09:24;16.77;;;9.45;;
70457;SDS011;57919;56.194;95.716;2023-06-04T14:19:26;31.17;;;10.00;;
70457;SDS011;57919;56.194;95.716;2023-06-04T14:29:28;35.63;;;9.83;;
70457;SDS011;57919;56.194;95.716;2023-06-04T14:39:30;40.63;;;21.73;;
70457;SDS011;57919;56.194;95.716;2023-06-04T14:49:32;62.17;;;33.37;;
70457;SDS011;57919;56.194;95.716;2023-06-04T14:59:35;60.05;;;35.33;;
70457;SDS011;57919;56.194;95.716;2023-06-04T15:09:38;54.30;;;29.13;;
70457;SDS011;57919;56.194;95.716;2023-06-04T15:19:40;47.43;;;21.87;;
70457;SDS011;57919;56.194;95.716;2023-06-04T15:29:43;34.58;;;16.80;;
70457;SDS011;57919;56.194;95.716;2023-06-04T15:39:45;36.40;;;20.43;;
70457;SDS011;57919;56.194;95.716;2023-06-04T15:49:46;44.90;;;21.83;;
70457;SDS011;57919;56.194;95.716;2023-06-04T15:59:48;34.73;;;20.33;;
70457;SDS011;57919;56.194;95.716;2023-06-04T16:09:50;44.17;;;23.33;;
70457;SDS011;57919;56.194;95.716;2023-06-04T16:19:52;52.42;;;25.83;;
70457;SDS011;57919;56.194;95.716;2023-06-04T16:29:54;41.33;;;20.23;;
70457;SDS011;57919;56.194;95.716;2023-06-04T16:39:56;39.92;;;19.02;;
70457;SDS011;57919;56.194;95.716;2023-06-04T16:49:58;32.30;;;17.07;;
70457;SDS011;57919;56.194;95.716;2023-06-04T17:00:00;44.57;;;17.50;;
70457;SDS011;57919;56.194;95.716;2023-06-04T17:10:06;29.92;;;14.02;;
70457;SDS011;57919;56.194;95.716;2023-06-04T17:20:09;35.77;;;14.27;;
70457;SDS011;57919;56.194;95.716;2023-06-04T17:30:12;27.50;;;12.02;;
70457;SDS011;57919;56.194;95.716;2023-06-04T17:40:14;32.70;;;13.97;;
70457;SDS011;57919;56.194;95.716;2023-06-04T17:50:16;23.20;;;12.10;;
70457;SDS011;57919;56.194;95.716;2023-06-04T18:00:18;30.20;;;12.80;;
70457;SDS011;57919;56.194;95.716;2023-06-04T18:10:20;22.63;;;11.37;;
70457;SDS011;57919;56.194;95.716;2023-06-04T18:20:22;24.00;;;12.50;;
70457;SDS011;57919;56.194;95.716;2023-06-04T18:30:25;17.73;;;9.57;;
70457;SDS011;57919;56.194;95.716;2023-06-04T18:40:26;17.97;;;9.27;;
70457;SDS011;57919;56.194;95.716;2023-06-04T18:50:28;16.13;;;9.35;;
70457;SDS011;57919;56.194;95.716;2023-06-04T19:00:30;18.87;;;9.50;;
70457;SDS011;57919;56.194;95.716;2023-06-04T19:10:32;17.65;;;8.75;;
70457;SDS011;57919;56.194;95.716;2023-06-04T19:20:34;14.77;;;8.60;;
70457;SDS011;57919;56.194;95.716;2023-06-04T19:30:36;15.50;;;8.80;;
70457;SDS011;57919;56.194;95.716;2023-06-04T19:40:37;18.10;;;8.98;;
70457;SDS011;57919;56.194;95.716;2023-06-04T19:50:39;16.30;;;8.70;;
70457;SDS011;57919;56.194;95.716;2023-06-04T20:00:41;16.85;;;9.35;;
70457;SDS011;57919;56.194;95.716;2023-06-04T20:10:43;16.17;;;9.63;;
70457;SDS011;57919;56.194;95.716;2023-06-04T20:20:46;15.87;;;9.27;;
70457;SDS011;57919;56.194;95.716;2023-06-04T20:30:52;17.48;;;9.70;;
70457;SDS011;57919;56.194;95.716;2023-06-04T20:40:54;18.30;;;9.40;;
70457;SDS011;57919;56.194;95.716;2023-06-04T20:50:56;19.77;;;10.05;;
70457;SDS011;57919;56.194;95.716;2023-06-04T21:00:59;16.57;;;8.43;;
70457;SDS011;57919;56.194;95.716;2023-06-04T21:11:01;15.67;;;8.60;;
70457;SDS011;57919;56.194;95.716;2023-06-04T21:21:03;16.17;;;9.50;;
70457;SDS011;57919;56.194;95.716;2023-06-04T21:31:05;14.73;;;8.43;;
70457;SDS011;57919;56.194;95.716;2023-06-04T21:41:07;19.88;;;9.20;;
70457;SDS011;57919;56.194;95.716;2023-06-04T21:51:09;14.73;;;7.80;;
70457;SDS011;57919;56.194;95.716;2023-06-04T22:01:11;16.07;;;9.60;;
70457;SDS011;57919;56.194;95.716;2023-06-04T22:11:12;22.17;;;9.55;;
70457;SDS011;57919;56.194;95.716;2023-06-04T22:21:14;15.47;;;8.20;;
70457;SDS011;57919;56.194;95.716;2023-06-04T22:31:16;16.58;;;8.85;;
70457;SDS011;57919;56.194;95.716;2023-06-04T22:41:18;16.33;;;9.10;;
70457;SDS011;57919;56.194;95.716;2023-06-04T22:51:20;16.37;;;9.00;;
70457;SDS011;57919;56.194;95.716;2023-06-04T23:01:25;14.00;;;8.10;;
70457;SDS011;57919;56.194;95.716;2023-06-04T23:11:28;13.97;;;8.07;;
70457;SDS011;57919;56.194;95.716;2023-06-04T23:21:30;14.80;;;8.18;;
70457;SDS011;57919;56.194;95.716;2023-06-04T23:31:32;18.83;;;9.47;;
70457;SDS011;57919;56.194;95.716;2023-06-04T23:41:34;17.27;;;9.47;;
70457;SDS011;57919;56.194;95.716;2023-06-04T23:51:36;14.45;;;9.05;;
